Hatsu Ethic — VQFS4 — position and weather

sailwx.info

Track history (hours):
 
Tides and Currents Weather Stations Pressure Air Temp Water Temp Dewpoint Dewpoint Depression Visibility Wind Speed Wind Dir Waves Ship Positions

Hatsu Ethic

Last reported at 2015-Jul-26 18:28 UTC. Time now 2015-Aug-01 05:45 UTC.
Position N 31°01' E 124°39'.

Type: Ship (hazmat cat D). MMSI: 235603000.

Date/timePositionNaut miles runAvg speedWind from/ knotsBaromVisibWave heightAir tempDewpointWater temp
2015-Jul-26 18:28N 31°01' E 124°39'1617.9
2015-Jul-26 17:34N 30°51' E 124°24'2318.1
2015-Jul-26 16:17N 30°38' E 124°03'1818.2
2015-Jul-26 15:19N 30°27' E 123°46'1918.2
2015-Jul-26 14:17N 30°16' E 123°28'1318.1
2015-Jul-26 13:33N 30°08' E 123°16'1818.2
2015-Jul-26 12:34N 29°58' E 122°59'1918.8
2015-Jul-26 11:33N 29°50' E 122°39'1615.8
2015-Jul-26 10:33N 29°44' E 122°22'9 9.0
2015-Jul-26 09:33N 29°49' E 122°13'1010.5
2015-Jul-26 08:34N 29°54' E 122°03'1 0.8
2015-Jul-26 07:25N 29°54' E 122°02'0 0.0
2015-Jul-26 06:25N 29°54' E 122°02'0 0.0
2015-Jul-26 05:31N 29°54' E 122°02'0 0.0
2015-Jul-25 22:25N 29°54' E 122°02'0 0.0
2015-Jul-25 21:28N 29°54' E 122°02'4 4.0
2015-Jul-25 20:31N 29°55' E 122°06'1111.1
2015-Jul-25 19:32N 29°48' E 122°15'5 0.5
2015-Jul-25 10:19N 29°47' E 122°21'0 0.0
2015-Jul-25 09:20N 29°47' E 122°21'0 0.0
2015-Jul-25 07:07N 29°47' E 122°21'1 0.2
2015-Jul-25 03:20N 29°46' E 122°21'1 0.6
2015-Jul-25 02:27N 29°46' E 122°22'3 2.8
2015-Jul-25 01:30N 29°44' E 122°24'8 8.1
2015-Jul-25 00:33N 29°45' E 122°33'75 8.3
2015-Jul-24 15:33N 30°57' E 122°54'1312.4
2015-Jul-24 14:29N 31°04' E 122°41'1111.5
2015-Jul-24 13:33N 31°06' E 122°28'1211.8
2015-Jul-24 12:33N 31°08' E 122°15'1414.3
2015-Jul-24 11:33N 31°15' E 121°60'1413.7
2015-Jul-24 10:33N 31°19' E 121°44'9 8.5
2015-Jul-24 09:29N 31°23' E 121°35'0 0.0
2015-Jul-24 08:32N 31°23' E 121°35'0 0.0
2015-Jul-24 07:32N 31°23' E 121°35'0 0.0
2015-Jul-24 06:29N 31°22' E 121°35'0 0.0
2015-Jul-24 05:32N 31°22' E 121°35'0 0.0
2015-Jul-24 04:29N 31°23' E 121°35'0 0.0
2015-Jul-24 03:32N 31°23' E 121°35'0 0.0
2015-Jul-24 02:32N 31°23' E 121°35'0 0.0
2015-Jul-24 01:32N 31°23' E 121°35'0 0.0
2015-Jul-24 00:32N 31°23' E 121°35'0 0.0
2015-Jul-23 23:32N 31°22' E 121°35'0 0.0
2015-Jul-23 22:32N 31°23' E 121°35'0 0.0
2015-Jul-23 21:32N 31°22' E 121°35'0 0.4
2015-Jul-23 20:33N 31°23' E 121°35'8 8.1
2015-Jul-23 19:33N 31°19' E 121°44'10 9.9
2015-Jul-23 18:33N 31°16' E 121°54'10 9.6
2015-Jul-23 17:33N 31°14' E 122°05'10 9.6
2015-Jul-23 16:33N 31°08' E 122°15'9 9.0
2015-Jul-23 15:33N 31°06' E 122°25'1211.8
2015-Jul-23 14:30N 31°06' E 122°39'51615.7
2015-Jul-22 05:33N 22°51' E 119°58'1515.4
2015-Jul-22 04:33N 22°38' E 120°06'1312.6
2015-Jul-22 03:33N 22°33' E 120°19'0 0.3
2015-Jul-22 02:31N 22°33' E 120°19'0 0.0
2015-Jul-22 01:31N 22°33' E 120°19'0 0.0
2015-Jul-21 18:13N 22°33' E 120°19'0 0.0
2015-Jul-21 17:31N 22°33' E 120°19'0 0.0
2015-Jul-21 16:19N 22°33' E 120°19'0 0.0
2015-Jul-21 15:31N 22°33' E 120°19'0 0.0
2015-Jul-21 14:25N 22°33' E 120°19'0 0.0
2015-Jul-21 13:31N 22°33' E 120°19'0 0.0
2015-Jul-21 12:31N 22°33' E 120°19'0 0.0
2015-Jul-21 11:25N 22°33' E 120°19'0 0.0
2015-Jul-21 10:29N 22°33' E 120°19'3 2.7
2015-Jul-21 09:33N 22°33' E 120°16'7 6.5
2015-Jul-21 08:33N 22°31' E 120°09'1313.5
2015-Jul-21 07:33N 22°30' E 119°55'31219.5
2015-Jul-20 15:33N 22°34' E 114°17'1 1.2
2015-Jul-20 14:33N 22°34' E 114°16'0 0.0
2015-Jul-20 13:33N 22°34' E 114°16'0 0.0
2015-Jul-20 12:33N 22°34' E 114°16'0 0.0
2015-Jul-20 11:33N 22°34' E 114°16'0 0.0
2015-Jul-20 10:32N 22°34' E 114°16'0 0.0
2015-Jul-20 09:33N 22°34' E 114°16'0 0.0
2015-Jul-20 08:33N 22°34' E 114°16'0 0.0
2015-Jul-20 07:33N 22°34' E 114°16'0 0.0
2015-Jul-20 06:33N 22°34' E 114°16'0 0.0
2015-Jul-20 05:33N 22°34' E 114°16'0 0.0
2015-Jul-20 04:28N 22°34' E 114°16'0 0.0
2015-Jul-20 03:34N 22°34' E 114°16'0 0.0
2015-Jul-20 02:33N 22°34' E 114°16'0 0.0
2015-Jul-20 00:33N 22°34' E 114°16'0 0.0
2015-Jul-19 23:33N 22°34' E 114°16'0 0.1
2015-Jul-19 22:32N 22°34' E 114°16'19 4.4
2015-Jul-19 18:18N 22°22' E 114°32'1010.3
2015-Jul-19 17:17N 22°12' E 114°33'7 9.9
2015-Jul-19 16:33N 22°08' E 114°27'10 9.4
2015-Jul-19 15:26N 22°07' E 114°15'12 9.5
2015-Jul-19 14:10N 22°16' E 114°06'4 5.7
2015-Jul-19 13:33N 22°20' E 114°07'0 0.3
2015-Jul-19 12:28N 22°20' E 114°08'0 0.0
2015-Jul-19 11:31N 22°20' E 114°08'0 0.0
2015-Jul-19 10:31N 22°20' E 114°08'0 0.0
2015-Jul-19 09:31N 22°20' E 114°08'0 0.0
2015-Jul-19 08:31N 22°20' E 114°08'0 0.0
2015-Jul-19 07:25N 22°20' E 114°08'0 0.0
2015-Jul-19 06:25N 22°20' E 114°08'0 0.0
2015-Jul-19 05:31N 22°20' E 114°08'0 0.0
2015-Jul-19 04:31N 22°20' E 114°08'16 4.1
2015-Jul-19 00:33N 22°09' E 114°21'28817.9
2015-Jul-18 08:30N 24°18' E 119°00'  
Track history (hours):
 
Tides and Currents Weather Stations Pressure Air Temp Water Temp Dewpoint Dewpoint Depression Visibility Wind Speed Wind Dir Waves Ship Positions

Hatsu Ethic

Last reported at 2015-Jul-26 18:28 UTC. Time now 2015-Aug-01 05:45 UTC.
Position N 31°01' E 124°39'.

Type: Ship (hazmat cat D). MMSI: 235603000.

Date/timePositionNaut miles runAvg speedWind from/ knotsBaromVisibWave heightAir tempDewpointWater temp
2015-Jul-26 18:28N 31°01' E 124°39'1617.9
2015-Jul-26 17:34N 30°51' E 124°24'2318.1
2015-Jul-26 16:17N 30°38' E 124°03'1818.2
2015-Jul-26 15:19N 30°27' E 123°46'1918.2
2015-Jul-26 14:17N 30°16' E 123°28'1318.1
2015-Jul-26 13:33N 30°08' E 123°16'1818.2
2015-Jul-26 12:34N 29°58' E 122°59'1918.8
2015-Jul-26 11:33N 29°50' E 122°39'1615.8
2015-Jul-26 10:33N 29°44' E 122°22'9 9.0
2015-Jul-26 09:33N 29°49' E 122°13'1010.5
2015-Jul-26 08:34N 29°54' E 122°03'1 0.8
2015-Jul-26 07:25N 29°54' E 122°02'0 0.0
2015-Jul-26 06:25N 29°54' E 122°02'0 0.0
2015-Jul-26 05:31N 29°54' E 122°02'0 0.0
2015-Jul-25 22:25N 29°54' E 122°02'0 0.0
2015-Jul-25 21:28N 29°54' E 122°02'4 4.0
2015-Jul-25 20:31N 29°55' E 122°06'1111.1
2015-Jul-25 19:32N 29°48' E 122°15'5 0.5
2015-Jul-25 10:19N 29°47' E 122°21'0 0.0
2015-Jul-25 09:20N 29°47' E 122°21'0 0.0
2015-Jul-25 07:07N 29°47' E 122°21'1 0.2
2015-Jul-25 03:20N 29°46' E 122°21'1 0.6
2015-Jul-25 02:27N 29°46' E 122°22'3 2.8
2015-Jul-25 01:30N 29°44' E 122°24'8 8.1
2015-Jul-25 00:33N 29°45' E 122°33'75 8.3
2015-Jul-24 15:33N 30°57' E 122°54'1312.4
2015-Jul-24 14:29N 31°04' E 122°41'1111.5
2015-Jul-24 13:33N 31°06' E 122°28'1211.8
2015-Jul-24 12:33N 31°08' E 122°15'1414.3
2015-Jul-24 11:33N 31°15' E 121°60'1413.7
2015-Jul-24 10:33N 31°19' E 121°44'9 8.5
2015-Jul-24 09:29N 31°23' E 121°35'0 0.0
2015-Jul-24 08:32N 31°23' E 121°35'0 0.0
2015-Jul-24 07:32N 31°23' E 121°35'0 0.0
2015-Jul-24 06:29N 31°22' E 121°35'0 0.0
2015-Jul-24 05:32N 31°22' E 121°35'0 0.0
2015-Jul-24 04:29N 31°23' E 121°35'0 0.0
2015-Jul-24 03:32N 31°23' E 121°35'0 0.0
2015-Jul-24 02:32N 31°23' E 121°35'0 0.0
2015-Jul-24 01:32N 31°23' E 121°35'0 0.0
2015-Jul-24 00:32N 31°23' E 121°35'0 0.0
2015-Jul-23 23:32N 31°22' E 121°35'0 0.0
2015-Jul-23 22:32N 31°23' E 121°35'0 0.0
2015-Jul-23 21:32N 31°22' E 121°35'0 0.4
2015-Jul-23 20:33N 31°23' E 121°35'8 8.1
2015-Jul-23 19:33N 31°19' E 121°44'10 9.9
2015-Jul-23 18:33N 31°16' E 121°54'10 9.6
2015-Jul-23 17:33N 31°14' E 122°05'10 9.6
2015-Jul-23 16:33N 31°08' E 122°15'9 9.0
2015-Jul-23 15:33N 31°06' E 122°25'1211.8
2015-Jul-23 14:30N 31°06' E 122°39'51615.7
2015-Jul-22 05:33N 22°51' E 119°58'1515.4
2015-Jul-22 04:33N 22°38' E 120°06'1312.6
2015-Jul-22 03:33N 22°33' E 120°19'0 0.3
2015-Jul-22 02:31N 22°33' E 120°19'0 0.0
2015-Jul-22 01:31N 22°33' E 120°19'0 0.0
2015-Jul-21 18:13N 22°33' E 120°19'0 0.0
2015-Jul-21 17:31N 22°33' E 120°19'0 0.0
2015-Jul-21 16:19N 22°33' E 120°19'0 0.0
2015-Jul-21 15:31N 22°33' E 120°19'0 0.0
2015-Jul-21 14:25N 22°33' E 120°19'0 0.0
2015-Jul-21 13:31N 22°33' E 120°19'0 0.0
2015-Jul-21 12:31N 22°33' E 120°19'0 0.0
2015-Jul-21 11:25N 22°33' E 120°19'0 0.0
2015-Jul-21 10:29N 22°33' E 120°19'3 2.7
2015-Jul-21 09:33N 22°33' E 120°16'7 6.5
2015-Jul-21 08:33N 22°31' E 120°09'1313.5
2015-Jul-21 07:33N 22°30' E 119°55'31219.5
2015-Jul-20 15:33N 22°34' E 114°17'1 1.2
2015-Jul-20 14:33N 22°34' E 114°16'0 0.0
2015-Jul-20 13:33N 22°34' E 114°16'0 0.0
2015-Jul-20 12:33N 22°34' E 114°16'0 0.0
2015-Jul-20 11:33N 22°34' E 114°16'0 0.0
2015-Jul-20 10:32N 22°34' E 114°16'0 0.0
2015-Jul-20 09:33N 22°34' E 114°16'0 0.0
2015-Jul-20 08:33N 22°34' E 114°16'0 0.0
2015-Jul-20 07:33N 22°34' E 114°16'0 0.0
2015-Jul-20 06:33N 22°34' E 114°16'0 0.0
2015-Jul-20 05:33N 22°34' E 114°16'0 0.0
2015-Jul-20 04:28N 22°34' E 114°16'0 0.0
2015-Jul-20 03:34N 22°34' E 114°16'0 0.0
2015-Jul-20 02:33N 22°34' E 114°16'0 0.0
2015-Jul-20 00:33N 22°34' E 114°16'0 0.0
2015-Jul-19 23:33N 22°34' E 114°16'0 0.1
2015-Jul-19 22:32N 22°34' E 114°16'19 4.4
2015-Jul-19 18:18N 22°22' E 114°32'1010.3
2015-Jul-19 17:17N 22°12' E 114°33'7 9.9
2015-Jul-19 16:33N 22°08' E 114°27'10 9.4
2015-Jul-19 15:26N 22°07' E 114°15'12 9.5
2015-Jul-19 14:10N 22°16' E 114°06'4 5.7
2015-Jul-19 13:33N 22°20' E 114°07'0 0.3
2015-Jul-19 12:28N 22°20' E 114°08'0 0.0
2015-Jul-19 11:31N 22°20' E 114°08'0 0.0
2015-Jul-19 10:31N 22°20' E 114°08'0 0.0
2015-Jul-19 09:31N 22°20' E 114°08'0 0.0
2015-Jul-19 08:31N 22°20' E 114°08'0 0.0
2015-Jul-19 07:25N 22°20' E 114°08'0 0.0
2015-Jul-19 06:25N 22°20' E 114°08'0 0.0
2015-Jul-19 05:31N 22°20' E 114°08'0 0.0
2015-Jul-19 04:31N 22°20' E 114°08'16 4.1
2015-Jul-19 00:33N 22°09' E 114°21'28817.9
2015-Jul-18 08:30N 24°18' E 119°00'  

Dump ship's entire track history